sensor_id;sensor_type;location;lat;lon;timestamp;P1;durP1;ratioP1;P2;durP2;ratioP2
25237;SDS011;13185;50.872;5.306;2022-07-29T00:00:49;3.70;;;1.17;;
25237;SDS011;13185;50.872;5.306;2022-07-29T00:03:15;6.55;;;1.90;;
25237;SDS011;13185;50.872;5.306;2022-07-29T00:05:40;5.45;;;1.15;;
25237;SDS011;13185;50.872;5.306;2022-07-29T00:08:07;6.05;;;1.42;;
25237;SDS011;13185;50.872;5.306;2022-07-29T00:10:33;8.77;;;1.90;;
25237;SDS011;13185;50.872;5.306;2022-07-29T00:13:00;5.05;;;2.05;;
25237;SDS011;13185;50.872;5.306;2022-07-29T00:15:25;6.50;;;1.40;;
25237;SDS011;13185;50.872;5.306;2022-07-29T00:17:51;4.68;;;1.30;;
25237;SDS011;13185;50.872;5.306;2022-07-29T00:20:16;7.18;;;1.40;;
25237;SDS011;13185;50.872;5.306;2022-07-29T00:22:42;7.22;;;1.88;;
25237;SDS011;13185;50.872;5.306;2022-07-29T00:25:07;5.07;;;1.40;;
25237;SDS011;13185;50.872;5.306;2022-07-29T00:27:33;8.07;;;1.50;;
25237;SDS011;13185;50.872;5.306;2022-07-29T00:30:00;3.45;;;1.33;;
25237;SDS011;13185;50.872;5.306;2022-07-29T00:32:25;3.30;;;1.40;;
25237;SDS011;13185;50.872;5.306;2022-07-29T00:34:51;4.65;;;1.45;;
25237;SDS011;13185;50.872;5.306;2022-07-29T00:37:35;2.90;;;1.38;;
25237;SDS011;13185;50.872;5.306;2022-07-29T00:40:01;5.30;;;1.45;;
25237;SDS011;13185;50.872;5.306;2022-07-29T00:42:26;4.22;;;1.30;;
25237;SDS011;13185;50.872;5.306;2022-07-29T00:44:52;5.72;;;1.20;;
25237;SDS011;13185;50.872;5.306;2022-07-29T00:47:17;5.68;;;1.35;;
25237;SDS011;13185;50.872;5.306;2022-07-29T00:49:43;16.50;;;2.65;;
25237;SDS011;13185;50.872;5.306;2022-07-29T00:52:09;4.50;;;1.40;;
25237;SDS011;13185;50.872;5.306;2022-07-29T00:54:36;3.40;;;1.67;;
25237;SDS011;13185;50.872;5.306;2022-07-29T00:57:04;4.45;;;1.50;;
25237;SDS011;13185;50.872;5.306;2022-07-29T00:59:31;5.45;;;1.67;;
25237;SDS011;13185;50.872;5.306;2022-07-29T01:01:56;6.85;;;1.67;;
25237;SDS011;13185;50.872;5.306;2022-07-29T01:04:22;4.20;;;1.52;;
25237;SDS011;13185;50.872;5.306;2022-07-29T01:06:48;2.28;;;1.20;;
25237;SDS011;13185;50.872;5.306;2022-07-29T01:09:14;3.72;;;1.45;;
25237;SDS011;13185;50.872;5.306;2022-07-29T01:11:42;3.65;;;1.20;;
25237;SDS011;13185;50.872;5.306;2022-07-29T01:14:08;6.10;;;1.33;;
25237;SDS011;13185;50.872;5.306;2022-07-29T01:27:51;5.25;;;1.45;;
25237;SDS011;13185;50.872;5.306;2022-07-29T01:30:20;1.38;;;0.90;;
25237;SDS011;13185;50.872;5.306;2022-07-29T01:32:48;3.30;;;1.42;;
25237;SDS011;13185;50.872;5.306;2022-07-29T01:35:18;4.75;;;1.38;;
25237;SDS011;13185;50.872;5.306;2022-07-29T01:37:51;6.18;;;1.73;;
25237;SDS011;13185;50.872;5.306;2022-07-29T01:40:35;5.50;;;1.30;;
25237;SDS011;13185;50.872;5.306;2022-07-29T01:43:15;4.20;;;1.65;;
25237;SDS011;13185;50.872;5.306;2022-07-29T01:45:43;5.28;;;1.92;;
25237;SDS011;13185;50.872;5.306;2022-07-29T01:50:58;3.00;;;1.90;;
25237;SDS011;13185;50.872;5.306;2022-07-29T01:53:33;6.13;;;1.70;;
25237;SDS011;13185;50.872;5.306;2022-07-29T01:56:02;3.75;;;1.70;;
25237;SDS011;13185;50.872;5.306;2022-07-29T01:58:29;4.05;;;1.45;;
25237;SDS011;13185;50.872;5.306;2022-07-29T02:00:57;3.05;;;1.80;;
25237;SDS011;13185;50.872;5.306;2022-07-29T02:03:24;6.05;;;1.75;;
25237;SDS011;13185;50.872;5.306;2022-07-29T02:05:52;4.00;;;1.48;;
25237;SDS011;13185;50.872;5.306;2022-07-29T02:08:20;6.03;;;1.67;;
25237;SDS011;13185;50.872;5.306;2022-07-29T02:10:47;5.00;;;1.70;;
25237;SDS011;13185;50.872;5.306;2022-07-29T02:13:14;3.22;;;1.48;;
25237;SDS011;13185;50.872;5.306;2022-07-29T02:15:42;6.75;;;1.77;;
25237;SDS011;13185;50.872;5.306;2022-07-29T02:18:18;5.85;;;1.83;;
25237;SDS011;13185;50.872;5.306;2022-07-29T02:20:47;6.68;;;2.00;;
25237;SDS011;13185;50.872;5.306;2022-07-29T02:23:17;4.80;;;1.77;;
25237;SDS011;13185;50.872;5.306;2022-07-29T02:25:46;6.25;;;1.42;;
25237;SDS011;13185;50.872;5.306;2022-07-29T02:28:14;5.90;;;1.42;;
25237;SDS011;13185;50.872;5.306;2022-07-29T02:30:41;8.38;;;1.15;;
25237;SDS011;13185;50.872;5.306;2022-07-29T02:33:08;6.22;;;1.55;;
25237;SDS011;13185;50.872;5.306;2022-07-29T02:35:38;4.57;;;1.90;;
25237;SDS011;13185;50.872;5.306;2022-07-29T02:38:06;5.38;;;2.22;;
25237;SDS011;13185;50.872;5.306;2022-07-29T02:40:53;2.53;;;1.35;;
25237;SDS011;13185;50.872;5.306;2022-07-29T02:43:21;3.60;;;1.30;;
25237;SDS011;13185;50.872;5.306;2022-07-29T02:45:49;4.72;;;1.73;;
25237;SDS011;13185;50.872;5.306;2022-07-29T02:48:18;4.72;;;1.33;;
25237;SDS011;13185;50.872;5.306;2022-07-29T02:50:54;4.40;;;1.95;;
25237;SDS011;13185;50.872;5.306;2022-07-29T02:53:29;3.80;;;1.52;;
25237;SDS011;13185;50.872;5.306;2022-07-29T02:56:02;6.60;;;1.67;;
25237;SDS011;13185;50.872;5.306;2022-07-29T02:58:32;6.03;;;1.83;;
25237;SDS011;13185;50.872;5.306;2022-07-29T03:01:07;5.03;;;1.52;;
25237;SDS011;13185;50.872;5.306;2022-07-29T03:03:45;3.83;;;1.50;;
25237;SDS011;13185;50.872;5.306;2022-07-29T03:06:12;3.50;;;1.50;;
25237;SDS011;13185;50.872;5.306;2022-07-29T03:08:39;3.45;;;1.65;;
25237;SDS011;13185;50.872;5.306;2022-07-29T03:11:05;5.50;;;1.67;;
25237;SDS011;13185;50.872;5.306;2022-07-29T03:13:33;6.57;;;2.13;;
25237;SDS011;13185;50.872;5.306;2022-07-29T03:15:59;3.88;;;1.77;;
25237;SDS011;13185;50.872;5.306;2022-07-29T03:18:25;7.10;;;1.73;;
25237;SDS011;13185;50.872;5.306;2022-07-29T03:20:51;3.85;;;1.50;;
25237;SDS011;13185;50.872;5.306;2022-07-29T03:23:20;3.83;;;1.45;;
25237;SDS011;13185;50.872;5.306;2022-07-29T03:25:52;4.45;;;1.20;;
25237;SDS011;13185;50.872;5.306;2022-07-29T03:28:18;5.05;;;1.45;;
25237;SDS011;13185;50.872;5.306;2022-07-29T03:30:44;3.67;;;1.52;;
25237;SDS011;13185;50.872;5.306;2022-07-29T03:33:10;3.50;;;1.77;;
25237;SDS011;13185;50.872;5.306;2022-07-29T03:35:36;3.45;;;1.73;;
25237;SDS011;13185;50.872;5.306;2022-07-29T03:38:01;4.93;;;1.70;;
25237;SDS011;13185;50.872;5.306;2022-07-29T03:40:30;3.58;;;2.03;;
25237;SDS011;13185;50.872;5.306;2022-07-29T03:42:58;6.50;;;1.90;;
25237;SDS011;13185;50.872;5.306;2022-07-29T03:45:27;4.07;;;1.98;;
25237;SDS011;13185;50.872;5.306;2022-07-29T03:47:57;2.47;;;1.52;;
25237;SDS011;13185;50.872;5.306;2022-07-29T03:50:29;4.45;;;1.70;;
25237;SDS011;13185;50.872;5.306;2022-07-29T03:52:55;3.35;;;1.95;;
25237;SDS011;13185;50.872;5.306;2022-07-29T03:55:21;7.10;;;1.70;;
25237;SDS011;13185;50.872;5.306;2022-07-29T03:57:47;3.60;;;1.80;;
25237;SDS011;13185;50.872;5.306;2022-07-29T04:00:14;4.57;;;1.92;;
25237;SDS011;13185;50.872;5.306;2022-07-29T04:02:41;5.70;;;1.95;;
25237;SDS011;13185;50.872;5.306;2022-07-29T04:05:13;3.70;;;1.88;;
25237;SDS011;13185;50.872;5.306;2022-07-29T04:07:40;5.80;;;2.38;;
25237;SDS011;13185;50.872;5.306;2022-07-29T04:10:08;4.35;;;1.80;;
25237;SDS011;13185;50.872;5.306;2022-07-29T04:12:34;3.15;;;1.70;;
25237;SDS011;13185;50.872;5.306;2022-07-29T04:15:00;4.35;;;1.98;;
25237;SDS011;13185;50.872;5.306;2022-07-29T04:17:26;7.28;;;2.30;;
25237;SDS011;13185;50.872;5.306;2022-07-29T04:19:51;4.22;;;1.65;;
25237;SDS011;13185;50.872;5.306;2022-07-29T04:22:17;3.97;;;1.63;;
25237;SDS011;13185;50.872;5.306;2022-07-29T04:24:42;5.32;;;1.80;;
25237;SDS011;13185;50.872;5.306;2022-07-29T04:27:08;4.57;;;1.77;;
25237;SDS011;13185;50.872;5.306;2022-07-29T04:29:33;5.35;;;2.00;;
25237;SDS011;13185;50.872;5.306;2022-07-29T04:31:59;7.57;;;2.78;;
25237;SDS011;13185;50.872;5.306;2022-07-29T04:34:24;5.78;;;1.83;;
25237;SDS011;13185;50.872;5.306;2022-07-29T04:36:50;2.42;;;1.60;;
25237;SDS011;13185;50.872;5.306;2022-07-29T04:39:15;4.95;;;1.90;;
25237;SDS011;13185;50.872;5.306;2022-07-29T04:41:43;5.30;;;1.80;;
25237;SDS011;13185;50.872;5.306;2022-07-29T04:44:08;5.55;;;2.00;;
25237;SDS011;13185;50.872;5.306;2022-07-29T04:46:34;5.07;;;2.05;;
25237;SDS011;13185;50.872;5.306;2022-07-29T04:49:01;3.63;;;2.05;;
25237;SDS011;13185;50.872;5.306;2022-07-29T04:51:27;5.50;;;1.90;;
25237;SDS011;13185;50.872;5.306;2022-07-29T04:53:52;5.28;;;2.17;;
25237;SDS011;13185;50.872;5.306;2022-07-29T04:56:18;3.00;;;1.70;;
25237;SDS011;13185;50.872;5.306;2022-07-29T04:58:43;4.32;;;2.15;;
25237;SDS011;13185;50.872;5.306;2022-07-29T05:01:09;8.82;;;1.95;;
25237;SDS011;13185;50.872;5.306;2022-07-29T05:03:34;6.10;;;2.33;;
25237;SDS011;13185;50.872;5.306;2022-07-29T05:06:00;4.43;;;2.40;;
25237;SDS011;13185;50.872;5.306;2022-07-29T05:08:25;4.97;;;2.22;;
25237;SDS011;13185;50.872;5.306;2022-07-29T05:10:50;3.03;;;1.80;;
25237;SDS011;13185;50.872;5.306;2022-07-29T05:13:16;5.63;;;2.13;;
25237;SDS011;13185;50.872;5.306;2022-07-29T05:15:42;5.05;;;2.63;;
25237;SDS011;13185;50.872;5.306;2022-07-29T05:18:07;6.72;;;2.30;;
25237;SDS011;13185;50.872;5.306;2022-07-29T05:20:32;5.30;;;2.50;;
25237;SDS011;13185;50.872;5.306;2022-07-29T05:23:00;4.20;;;2.30;;
25237;SDS011;13185;50.872;5.306;2022-07-29T05:25:26;5.20;;;2.13;;
25237;SDS011;13185;50.872;5.306;2022-07-29T05:27:52;5.10;;;2.42;;
25237;SDS011;13185;50.872;5.306;2022-07-29T05:30:18;3.53;;;2.35;;
25237;SDS011;13185;50.872;5.306;2022-07-29T05:32:44;4.28;;;2.70;;
25237;SDS011;13185;50.872;5.306;2022-07-29T05:35:11;6.20;;;2.78;;
25237;SDS011;13185;50.872;5.306;2022-07-29T05:37:38;5.03;;;2.72;;
25237;SDS011;13185;50.872;5.306;2022-07-29T05:40:03;4.75;;;2.92;;
25237;SDS011;13185;50.872;5.306;2022-07-29T05:42:29;4.88;;;2.75;;
25237;SDS011;13185;50.872;5.306;2022-07-29T05:44:55;6.90;;;4.07;;
25237;SDS011;13185;50.872;5.306;2022-07-29T05:47:21;6.40;;;3.33;;
25237;SDS011;13185;50.872;5.306;2022-07-29T05:49:47;6.95;;;3.40;;
25237;SDS011;13185;50.872;5.306;2022-07-29T05:52:12;5.28;;;3.10;;
25237;SDS011;13185;50.872;5.306;2022-07-29T05:54:38;6.68;;;3.25;;
25237;SDS011;13185;50.872;5.306;2022-07-29T05:57:04;6.93;;;3.75;;
25237;SDS011;13185;50.872;5.306;2022-07-29T05:59:30;7.95;;;3.00;;
25237;SDS011;13185;50.872;5.306;2022-07-29T06:01:57;8.30;;;3.85;;
25237;SDS011;13185;50.872;5.306;2022-07-29T06:04:22;7.22;;;2.83;;
25237;SDS011;13185;50.872;5.306;2022-07-29T06:06:48;5.93;;;2.83;;
25237;SDS011;13185;50.872;5.306;2022-07-29T06:09:13;7.22;;;2.95;;
25237;SDS011;13185;50.872;5.306;2022-07-29T06:11:40;5.65;;;3.00;;
25237;SDS011;13185;50.872;5.306;2022-07-29T06:14:05;6.53;;;3.25;;
25237;SDS011;13185;50.872;5.306;2022-07-29T06:16:31;7.22;;;3.08;;
25237;SDS011;13185;50.872;5.306;2022-07-29T06:18:56;5.93;;;3.17;;
25237;SDS011;13185;50.872;5.306;2022-07-29T06:21:22;7.93;;;3.30;;
25237;SDS011;13185;50.872;5.306;2022-07-29T06:23:47;8.32;;;4.18;;
25237;SDS011;13185;50.872;5.306;2022-07-29T06:26:12;4.88;;;3.03;;
25237;SDS011;13185;50.872;5.306;2022-07-29T06:28:38;6.70;;;3.03;;
25237;SDS011;13185;50.872;5.306;2022-07-29T06:31:04;7.22;;;3.38;;
25237;SDS011;13185;50.872;5.306;2022-07-29T06:33:30;9.32;;;3.22;;
25237;SDS011;13185;50.872;5.306;2022-07-29T06:35:56;8.93;;;3.20;;
25237;SDS011;13185;50.872;5.306;2022-07-29T06:38:21;10.93;;;3.50;;
25237;SDS011;13185;50.872;5.306;2022-07-29T06:40:47;6.68;;;3.20;;
25237;SDS011;13185;50.872;5.306;2022-07-29T06:43:25;5.95;;;3.15;;
25237;SDS011;13185;50.872;5.306;2022-07-29T06:45:51;6.95;;;3.30;;
25237;SDS011;13185;50.872;5.306;2022-07-29T06:48:17;6.03;;;2.88;;
25237;SDS011;13185;50.872;5.306;2022-07-29T06:50:43;12.15;;;3.42;;
25237;SDS011;13185;50.872;5.306;2022-07-29T06:53:08;5.75;;;2.63;;
25237;SDS011;13185;50.872;5.306;2022-07-29T06:55:34;6.55;;;2.80;;
25237;SDS011;13185;50.872;5.306;2022-07-29T06:57:59;5.95;;;2.97;;
25237;SDS011;13185;50.872;5.306;2022-07-29T07:00:25;5.10;;;2.65;;
25237;SDS011;13185;50.872;5.306;2022-07-29T07:02:50;4.53;;;2.60;;
25237;SDS011;13185;50.872;5.306;2022-07-29T07:05:16;7.60;;;2.50;;
25237;SDS011;13185;50.872;5.306;2022-07-29T07:07:41;7.22;;;3.03;;
25237;SDS011;13185;50.872;5.306;2022-07-29T07:10:07;7.22;;;2.28;;
25237;SDS011;13185;50.872;5.306;2022-07-29T07:12:33;4.43;;;2.65;;
25237;SDS011;13185;50.872;5.306;2022-07-29T07:14:58;4.53;;;2.25;;
25237;SDS011;13185;50.872;5.306;2022-07-29T07:17:24;6.35;;;2.85;;
25237;SDS011;13185;50.872;5.306;2022-07-29T07:19:49;3.78;;;2.30;;
25237;SDS011;13185;50.872;5.306;2022-07-29T07:22:15;7.25;;;2.50;;
25237;SDS011;13185;50.872;5.306;2022-07-29T07:24:40;6.85;;;2.40;;
25237;SDS011;13185;50.872;5.306;2022-07-29T07:27:05;4.32;;;2.17;;
25237;SDS011;13185;50.872;5.306;2022-07-29T07:29:31;5.15;;;2.42;;
25237;SDS011;13185;50.872;5.306;2022-07-29T07:31:57;4.90;;;2.70;;
25237;SDS011;13185;50.872;5.306;2022-07-29T07:34:23;5.40;;;2.17;;
25237;SDS011;13185;50.872;5.306;2022-07-29T07:36:48;6.07;;;2.55;;
25237;SDS011;13185;50.872;5.306;2022-07-29T07:39:13;4.85;;;1.90;;
25237;SDS011;13185;50.872;5.306;2022-07-29T07:41:39;4.32;;;2.28;;
25237;SDS011;13185;50.872;5.306;2022-07-29T07:44:04;4.70;;;2.60;;
25237;SDS011;13185;50.872;5.306;2022-07-29T07:46:31;3.22;;;2.28;;
25237;SDS011;13185;50.872;5.306;2022-07-29T07:48:56;4.65;;;2.35;;
25237;SDS011;13185;50.872;5.306;2022-07-29T07:51:23;6.38;;;2.58;;
25237;SDS011;13185;50.872;5.306;2022-07-29T07:53:48;5.03;;;2.10;;
25237;SDS011;13185;50.872;5.306;2022-07-29T07:56:15;6.68;;;3.00;;
25237;SDS011;13185;50.872;5.306;2022-07-29T07:58:41;4.05;;;2.42;;
25237;SDS011;13185;50.872;5.306;2022-07-29T08:01:07;3.75;;;2.00;;
25237;SDS011;13185;50.872;5.306;2022-07-29T08:03:33;3.75;;;1.90;;
25237;SDS011;13185;50.872;5.306;2022-07-29T08:05:58;6.22;;;2.63;;
25237;SDS011;13185;50.872;5.306;2022-07-29T08:08:24;4.88;;;2.13;;
25237;SDS011;13185;50.872;5.306;2022-07-29T08:10:50;4.93;;;2.33;;
25237;SDS011;13185;50.872;5.306;2022-07-29T08:13:19;4.30;;;2.25;;
25237;SDS011;13185;50.872;5.306;2022-07-29T08:15:46;4.68;;;2.17;;
25237;SDS011;13185;50.872;5.306;2022-07-29T08:18:12;4.63;;;2.13;;
25237;SDS011;13185;50.872;5.306;2022-07-29T08:20:38;5.05;;;2.00;;
25237;SDS011;13185;50.872;5.306;2022-07-29T08:23:05;4.75;;;2.53;;
25237;SDS011;13185;50.872;5.306;2022-07-29T08:25:34;6.32;;;2.60;;
25237;SDS011;13185;50.872;5.306;2022-07-29T08:28:00;4.80;;;2.10;;
25237;SDS011;13185;50.872;5.306;2022-07-29T08:30:26;5.53;;;2.60;;
25237;SDS011;13185;50.872;5.306;2022-07-29T08:32:51;5.40;;;2.78;;
25237;SDS011;13185;50.872;5.306;2022-07-29T08:35:21;3.75;;;2.17;;
25237;SDS011;13185;50.872;5.306;2022-07-29T08:37:48;5.13;;;2.45;;
25237;SDS011;13185;50.872;5.306;2022-07-29T08:40:13;6.88;;;2.63;;
25237;SDS011;13185;50.872;5.306;2022-07-29T08:42:39;2.65;;;1.55;;
25237;SDS011;13185;50.872;5.306;2022-07-29T08:45:05;3.58;;;2.08;;
25237;SDS011;13185;50.872;5.306;2022-07-29T08:47:34;6.63;;;1.95;;
25237;SDS011;13185;50.872;5.306;2022-07-29T08:50:04;5.65;;;2.45;;
25237;SDS011;13185;50.872;5.306;2022-07-29T08:52:31;3.70;;;2.65;;
25237;SDS011;13185;50.872;5.306;2022-07-29T08:55:01;4.50;;;2.33;;
25237;SDS011;13185;50.872;5.306;2022-07-29T08:57:27;3.28;;;2.25;;
25237;SDS011;13185;50.872;5.306;2022-07-29T08:59:53;5.07;;;2.80;;
25237;SDS011;13185;50.872;5.306;2022-07-29T09:02:20;6.05;;;2.38;;
25237;SDS011;13185;50.872;5.306;2022-07-29T09:04:47;2.70;;;2.03;;
25237;SDS011;13185;50.872;5.306;2022-07-29T09:07:16;4.15;;;2.30;;
25237;SDS011;13185;50.872;5.306;2022-07-29T09:09:43;5.18;;;2.97;;
25237;SDS011;13185;50.872;5.306;2022-07-29T09:12:11;8.23;;;2.97;;
25237;SDS011;13185;50.872;5.306;2022-07-29T09:14:38;3.95;;;2.30;;
25237;SDS011;13185;50.872;5.306;2022-07-29T09:17:04;5.22;;;2.40;;
25237;SDS011;13185;50.872;5.306;2022-07-29T09:19:31;2.90;;;1.98;;
25237;SDS011;13185;50.872;5.306;2022-07-29T09:22:00;3.28;;;1.55;;
25237;SDS011;13185;50.872;5.306;2022-07-29T09:24:27;4.55;;;2.85;;
25237;SDS011;13185;50.872;5.306;2022-07-29T09:27:01;6.43;;;2.45;;
25237;SDS011;13185;50.872;5.306;2022-07-29T09:29:27;3.28;;;1.95;;
25237;SDS011;13185;50.872;5.306;2022-07-29T09:31:53;4.03;;;1.60;;
25237;SDS011;13185;50.872;5.306;2022-07-29T09:34:23;5.47;;;1.98;;
25237;SDS011;13185;50.872;5.306;2022-07-29T09:36:54;5.57;;;2.60;;
25237;SDS011;13185;50.872;5.306;2022-07-29T09:39:27;3.88;;;1.67;;
25237;SDS011;13185;50.872;5.306;2022-07-29T09:41:58;3.03;;;1.58;;
25237;SDS011;13185;50.872;5.306;2022-07-29T09:44:25;5.88;;;2.22;;
25237;SDS011;13185;50.872;5.306;2022-07-29T09:46:55;3.70;;;1.42;;
25237;SDS011;13185;50.872;5.306;2022-07-29T09:49:31;4.53;;;1.80;;
25237;SDS011;13185;50.872;5.306;2022-07-29T09:52:03;2.80;;;2.22;;
25237;SDS011;13185;50.872;5.306;2022-07-29T09:54:33;5.10;;;2.33;;
25237;SDS011;13185;50.872;5.306;2022-07-29T09:57:03;6.10;;;2.08;;
25237;SDS011;13185;50.872;5.306;2022-07-29T09:59:30;4.30;;;2.50;;
25237;SDS011;13185;50.872;5.306;2022-07-29T10:01:55;5.20;;;2.05;;
25237;SDS011;13185;50.872;5.306;2022-07-29T10:04:21;6.07;;;1.95;;
25237;SDS011;13185;50.872;5.306;2022-07-29T10:06:57;5.97;;;2.10;;
25237;SDS011;13185;50.872;5.306;2022-07-29T10:09:24;4.68;;;1.90;;
25237;SDS011;13185;50.872;5.306;2022-07-29T10:14:48;2.60;;;1.70;;
25237;SDS011;13185;50.872;5.306;2022-07-29T10:17:14;6.05;;;1.98;;
25237;SDS011;13185;50.872;5.306;2022-07-29T10:19:40;4.18;;;1.42;;
25237;SDS011;13185;50.872;5.306;2022-07-29T10:22:09;4.90;;;1.85;;
25237;SDS011;13185;50.872;5.306;2022-07-29T10:24:36;2.88;;;1.55;;
25237;SDS011;13185;50.872;5.306;2022-07-29T10:27:03;4.95;;;1.70;;
25237;SDS011;13185;50.872;5.306;2022-07-29T10:29:30;2.60;;;1.30;;
25237;SDS011;13185;50.872;5.306;2022-07-29T10:40:49;5.20;;;1.70;;
25237;SDS011;13185;50.872;5.306;2022-07-29T10:43:43;4.32;;;1.65;;
25237;SDS011;13185;50.872;5.306;2022-07-29T10:46:12;4.07;;;1.17;;
25237;SDS011;13185;50.872;5.306;2022-07-29T10:54:17;2.78;;;1.20;;
25237;SDS011;13185;50.872;5.306;2022-07-29T10:56:44;1.85;;;1.02;;
25237;SDS011;13185;50.872;5.306;2022-07-29T11:01:51;3.15;;;1.20;;
25237;SDS011;13185;50.872;5.306;2022-07-29T11:07:07;3.03;;;1.25;;
25237;SDS011;13185;50.872;5.306;2022-07-29T11:09:33;2.35;;;1.20;;
25237;SDS011;13185;50.872;5.306;2022-07-29T11:11:59;4.53;;;1.70;;
25237;SDS011;13185;50.872;5.306;2022-07-29T11:20:41;3.70;;;1.42;;
25237;SDS011;13185;50.872;5.306;2022-07-29T11:28:39;5.38;;;1.63;;
25237;SDS011;13185;50.872;5.306;2022-07-29T11:31:16;3.10;;;1.55;;
25237;SDS011;13185;50.872;5.306;2022-07-29T11:33:44;3.25;;;1.40;;
25237;SDS011;13185;50.872;5.306;2022-07-29T11:36:13;2.83;;;1.55;;
25237;SDS011;13185;50.872;5.306;2022-07-29T11:38:40;3.88;;;1.50;;
25237;SDS011;13185;50.872;5.306;2022-07-29T11:41:22;3.20;;;1.33;;
25237;SDS011;13185;50.872;5.306;2022-07-29T11:43:52;5.03;;;1.73;;
25237;SDS011;13185;50.872;5.306;2022-07-29T11:49:23;3.13;;;1.40;;
25237;SDS011;13185;50.872;5.306;2022-07-29T11:51:53;3.65;;;1.67;;
25237;SDS011;13185;50.872;5.306;2022-07-29T11:54:24;3.57;;;1.47;;
25237;SDS011;13185;50.872;5.306;2022-07-29T11:56:51;3.30;;;1.67;;
25237;SDS011;13185;50.872;5.306;2022-07-29T11:59:17;2.15;;;1.20;;
25237;SDS011;13185;50.872;5.306;2022-07-29T12:04:23;6.13;;;1.38;;
25237;SDS011;13185;50.872;5.306;2022-07-29T12:06:52;2.55;;;1.10;;
25237;SDS011;13185;50.872;5.306;2022-07-29T12:09:19;3.83;;;1.50;;
25237;SDS011;13185;50.872;5.306;2022-07-29T12:11:46;4.22;;;1.33;;
25237;SDS011;13185;50.872;5.306;2022-07-29T12:14:27;3.40;;;1.02;;
25237;SDS011;13185;50.872;5.306;2022-07-29T12:16:54;2.25;;;1.20;;
25237;SDS011;13185;50.872;5.306;2022-07-29T12:19:20;2.45;;;1.48;;
25237;SDS011;13185;50.872;5.306;2022-07-29T12:21:46;2.00;;;1.10;;
25237;SDS011;13185;50.872;5.306;2022-07-29T12:24:13;3.83;;;1.35;;
25237;SDS011;13185;50.872;5.306;2022-07-29T12:26:52;5.75;;;1.20;;
25237;SDS011;13185;50.872;5.306;2022-07-29T12:29:19;2.55;;;1.75;;
25237;SDS011;13185;50.872;5.306;2022-07-29T12:31:44;4.07;;;1.75;;
25237;SDS011;13185;50.872;5.306;2022-07-29T12:34:12;4.68;;;1.25;;
25237;SDS011;13185;50.872;5.306;2022-07-29T12:36:42;3.33;;;1.58;;
25237;SDS011;13185;50.872;5.306;2022-07-29T12:39:09;3.60;;;1.30;;
25237;SDS011;13185;50.872;5.306;2022-07-29T12:41:35;4.22;;;1.30;;
25237;SDS011;13185;50.872;5.306;2022-07-29T12:44:01;2.03;;;1.27;;
25237;SDS011;13185;50.872;5.306;2022-07-29T12:46:26;4.32;;;1.52;;
25237;SDS011;13185;50.872;5.306;2022-07-29T12:48:53;2.53;;;1.30;;
25237;SDS011;13185;50.872;5.306;2022-07-29T12:51:30;1.90;;;1.10;;
25237;SDS011;13185;50.872;5.306;2022-07-29T12:54:04;2.17;;;1.27;;
25237;SDS011;13185;50.872;5.306;2022-07-29T12:56:36;2.72;;;1.20;;
25237;SDS011;13185;50.872;5.306;2022-07-29T12:59:16;3.97;;;1.00;;
25237;SDS011;13185;50.872;5.306;2022-07-29T13:01:43;6.30;;;1.90;;
25237;SDS011;13185;50.872;5.306;2022-07-29T13:04:09;2.47;;;1.35;;
25237;SDS011;13185;50.872;5.306;2022-07-29T13:06:39;3.53;;;1.05;;
25237;SDS011;13185;50.872;5.306;2022-07-29T13:09:08;1.13;;;0.93;;
25237;SDS011;13185;50.872;5.306;2022-07-29T13:11:45;3.95;;;1.35;;
25237;SDS011;13185;50.872;5.306;2022-07-29T13:14:14;4.65;;;1.13;;
25237;SDS011;13185;50.872;5.306;2022-07-29T13:17:04;2.55;;;1.15;;
25237;SDS011;13185;50.872;5.306;2022-07-29T13:20:04;3.17;;;1.00;;
25237;SDS011;13185;50.872;5.306;2022-07-29T13:22:29;1.85;;;0.90;;
25237;SDS011;13185;50.872;5.306;2022-07-29T13:24:56;2.03;;;0.93;;
25237;SDS011;13185;50.872;5.306;2022-07-29T13:27:27;5.15;;;0.98;;
25237;SDS011;13185;50.872;5.306;2022-07-29T13:29:54;1.95;;;0.80;;
25237;SDS011;13185;50.872;5.306;2022-07-29T13:32:22;1.80;;;0.93;;
25237;SDS011;13185;50.872;5.306;2022-07-29T13:34:49;2.15;;;1.20;;
25237;SDS011;13185;50.872;5.306;2022-07-29T13:37:15;2.17;;;0.80;;
25237;SDS011;13185;50.872;5.306;2022-07-29T13:39:41;3.67;;;0.75;;
25237;SDS011;13185;50.872;5.306;2022-07-29T13:42:07;1.60;;;0.90;;
25237;SDS011;13185;50.872;5.306;2022-07-29T13:44:33;3.92;;;1.08;;
25237;SDS011;13185;50.872;5.306;2022-07-29T13:46:59;2.78;;;1.10;;
25237;SDS011;13185;50.872;5.306;2022-07-29T13:49:25;2.88;;;1.13;;
25237;SDS011;13185;50.872;5.306;2022-07-29T13:51:51;5.30;;;1.13;;
25237;SDS011;13185;50.872;5.306;2022-07-29T13:54:16;1.77;;;0.90;;
25237;SDS011;13185;50.872;5.306;2022-07-29T13:56:42;2.22;;;1.00;;
25237;SDS011;13185;50.872;5.306;2022-07-29T13:59:07;1.98;;;0.80;;
25237;SDS011;13185;50.872;5.306;2022-07-29T14:01:34;3.15;;;1.10;;
25237;SDS011;13185;50.872;5.306;2022-07-29T14:04:00;3.63;;;1.65;;
25237;SDS011;13185;50.872;5.306;2022-07-29T14:06:26;3.72;;;1.15;;
25237;SDS011;13185;50.872;5.306;2022-07-29T14:08:51;4.13;;;0.90;;
25237;SDS011;13185;50.872;5.306;2022-07-29T14:11:17;3.65;;;1.10;;
25237;SDS011;13185;50.872;5.306;2022-07-29T14:13:42;3.15;;;0.70;;
25237;SDS011;13185;50.872;5.306;2022-07-29T14:16:08;6.13;;;0.85;;
25237;SDS011;13185;50.872;5.306;2022-07-29T14:18:33;2.75;;;0.80;;
25237;SDS011;13185;50.872;5.306;2022-07-29T14:20:59;3.08;;;0.80;;
25237;SDS011;13185;50.872;5.306;2022-07-29T14:23:25;4.72;;;0.85;;
25237;SDS011;13185;50.872;5.306;2022-07-29T14:25:50;3.72;;;0.90;;
25237;SDS011;13185;50.872;5.306;2022-07-29T14:28:16;1.88;;;0.80;;
25237;SDS011;13185;50.872;5.306;2022-07-29T14:30:42;1.90;;;0.88;;
25237;SDS011;13185;50.872;5.306;2022-07-29T14:33:08;4.55;;;0.80;;
25237;SDS011;13185;50.872;5.306;2022-07-29T14:35:33;4.00;;;0.80;;
25237;SDS011;13185;50.872;5.306;2022-07-29T14:37:59;2.33;;;0.68;;
25237;SDS011;13185;50.872;5.306;2022-07-29T14:40:24;3.55;;;0.80;;
25237;SDS011;13185;50.872;5.306;2022-07-29T14:42:50;1.48;;;0.77;;
25237;SDS011;13185;50.872;5.306;2022-07-29T14:45:16;2.58;;;0.90;;
25237;SDS011;13185;50.872;5.306;2022-07-29T14:47:41;2.03;;;0.77;;
25237;SDS011;13185;50.872;5.306;2022-07-29T14:50:07;3.53;;;1.00;;
25237;SDS011;13185;50.872;5.306;2022-07-29T14:52:33;3.00;;;1.10;;
25237;SDS011;13185;50.872;5.306;2022-07-29T14:54:59;3.58;;;1.00;;
25237;SDS011;13185;50.872;5.306;2022-07-29T14:57:24;4.32;;;0.95;;
25237;SDS011;13185;50.872;5.306;2022-07-29T14:59:50;2.35;;;0.90;;
25237;SDS011;13185;50.872;5.306;2022-07-29T15:02:16;2.72;;;0.98;;
25237;SDS011;13185;50.872;5.306;2022-07-29T15:04:41;2.47;;;1.00;;
25237;SDS011;13185;50.872;5.306;2022-07-29T15:07:07;3.80;;;0.90;;
25237;SDS011;13185;50.872;5.306;2022-07-29T15:09:33;2.05;;;0.73;;
25237;SDS011;13185;50.872;5.306;2022-07-29T15:11:58;4.38;;;1.02;;
25237;SDS011;13185;50.872;5.306;2022-07-29T15:14:24;5.88;;;1.17;;
25237;SDS011;13185;50.872;5.306;2022-07-29T15:16:49;4.82;;;0.77;;
25237;SDS011;13185;50.872;5.306;2022-07-29T15:19:15;3.97;;;1.20;;
25237;SDS011;13185;50.872;5.306;2022-07-29T15:21:40;4.20;;;1.10;;
25237;SDS011;13185;50.872;5.306;2022-07-29T15:24:06;3.70;;;0.98;;
25237;SDS011;13185;50.872;5.306;2022-07-29T15:26:32;3.33;;;1.02;;
25237;SDS011;13185;50.872;5.306;2022-07-29T15:28:57;4.40;;;1.05;;
25237;SDS011;13185;50.872;5.306;2022-07-29T15:31:23;6.32;;;1.35;;
25237;SDS011;13185;50.872;5.306;2022-07-29T15:33:48;2.65;;;1.10;;
25237;SDS011;13185;50.872;5.306;2022-07-29T15:36:14;4.75;;;1.17;;
25237;SDS011;13185;50.872;5.306;2022-07-29T15:38:40;6.47;;;1.13;;
25237;SDS011;13185;50.872;5.306;2022-07-29T15:41:06;3.78;;;0.70;;
25237;SDS011;13185;50.872;5.306;2022-07-29T15:43:31;4.32;;;0.95;;